sensor_id;sensor_type;location;lat;lon;timestamp;pressure;altitude;pressure_sealevel;temperature;humidity
21504;BME280;10913;51.992;9.228;2023-07-22T00:02:16;100039.44;;;14.80;97.98
21504;BME280;10913;51.992;9.228;2023-07-22T00:04:42;100046.75;;;14.73;98.43
21504;BME280;10913;51.992;9.228;2023-07-22T00:07:07;100042.53;;;14.65;99.17
21504;BME280;10913;51.992;9.228;2023-07-22T00:09:33;100045.41;;;14.57;100.00
21504;BME280;10913;51.992;9.228;2023-07-22T00:12:02;100050.81;;;14.54;100.00
21504;BME280;10913;51.992;9.228;2023-07-22T00:14:27;100042.88;;;14.53;100.00
21504;BME280;10913;51.992;9.228;2023-07-22T00:16:52;100043.84;;;14.50;100.00
21504;BME280;10913;51.992;9.228;2023-07-22T00:19:18;100036.72;;;14.51;100.00
21504;BME280;10913;51.992;9.228;2023-07-22T00:21:43;100050.03;;;14.51;100.00
21504;BME280;10913;51.992;9.228;2023-07-22T00:24:09;100050.91;;;14.51;100.00
21504;BME280;10913;51.992;9.228;2023-07-22T00:26:35;100044.69;;;14.51;100.00
21504;BME280;10913;51.992;9.228;2023-07-22T00:29:01;100050.06;;;14.49;100.00
21504;BME280;10913;51.992;9.228;2023-07-22T00:31:27;100050.09;;;14.47;100.00
21504;BME280;10913;51.992;9.228;2023-07-22T00:33:53;100051.03;;;14.45;100.00
21504;BME280;10913;51.992;9.228;2023-07-22T00:36:18;100041.38;;;14.42;100.00
21504;BME280;10913;51.992;9.228;2023-07-22T00:38:44;100043.19;;;14.39;99.89
21504;BME280;10913;51.992;9.228;2023-07-22T00:41:09;100045.03;;;14.37;100.00
21504;BME280;10913;51.992;9.228;2023-07-22T00:43:34;100039.00;;;14.30;100.00
21504;BME280;10913;51.992;9.228;2023-07-22T00:46:00;100040.88;;;14.27;100.00
21504;BME280;10913;51.992;9.228;2023-07-22T00:48:25;100038.25;;;14.25;100.00
21504;BME280;10913;51.992;9.228;2023-07-22T00:50:52;100030.25;;;14.27;100.00
21504;BME280;10913;51.992;9.228;2023-07-22T00:53:18;100036.50;;;14.24;100.00
21504;BME280;10913;51.992;9.228;2023-07-22T00:55:44;100042.69;;;14.25;100.00
21504;BME280;10913;51.992;9.228;2023-07-22T00:58:10;100047.13;;;14.24;100.00
21504;BME280;10913;51.992;9.228;2023-07-22T01:00:36;100035.69;;;14.21;100.00
21504;BME280;10913;51.992;9.228;2023-07-22T01:03:01;100034.97;;;14.16;100.00
21504;BME280;10913;51.992;9.228;2023-07-22T01:05:27;100027.94;;;14.13;100.00
21504;BME280;10913;51.992;9.228;2023-07-22T01:07:53;100026.25;;;14.10;100.00
21504;BME280;10913;51.992;9.228;2023-07-22T01:10:18;100021.84;;;14.09;100.00
21504;BME280;10913;51.992;9.228;2023-07-22T01:12:45;100023.63;;;14.09;100.00
21504;BME280;10913;51.992;9.228;2023-07-22T01:15:10;100026.25;;;14.10;100.00
21504;BME280;10913;51.992;9.228;2023-07-22T01:17:37;100020.94;;;14.10;100.00
21504;BME280;10913;51.992;9.228;2023-07-22T01:20:03;100027.06;;;14.12;100.00
21504;BME280;10913;51.992;9.228;2023-07-22T01:22:29;100023.59;;;14.10;100.00
21504;BME280;10913;51.992;9.228;2023-07-22T01:24:55;100033.38;;;14.08;100.00
21504;BME280;10913;51.992;9.228;2023-07-22T01:27:21;100025.47;;;14.05;100.00
21504;BME280;10913;51.992;9.228;2023-07-22T01:29:46;100025.47;;;14.05;100.00
21504;BME280;10913;51.992;9.228;2023-07-22T01:32:15;100027.22;;;14.06;100.00
21504;BME280;10913;51.992;9.228;2023-07-22T01:34:40;100026.38;;;14.04;100.00
21504;BME280;10913;51.992;9.228;2023-07-22T01:37:07;100035.28;;;14.02;100.00
21504;BME280;10913;51.992;9.228;2023-07-22T01:39:32;100032.69;;;14.00;100.00
21504;BME280;10913;51.992;9.228;2023-07-22T01:41:57;100029.16;;;14.00;100.00
21504;BME280;10913;51.992;9.228;2023-07-22T01:44:23;100028.25;;;14.01;100.00
21504;BME280;10913;51.992;9.228;2023-07-22T01:46:48;100026.47;;;14.01;100.00
21504;BME280;10913;51.992;9.228;2023-07-22T01:49:13;100030.81;;;14.04;100.00
21504;BME280;10913;51.992;9.228;2023-07-22T01:51:39;100030.84;;;14.02;100.00
21504;BME280;10913;51.992;9.228;2023-07-22T01:54:08;100032.53;;;14.06;100.00
21504;BME280;10913;51.992;9.228;2023-07-22T01:56:35;100034.38;;;14.03;100.00
21504;BME280;10913;51.992;9.228;2023-07-22T01:59:00;100038.78;;;14.04;100.00
21504;BME280;10913;51.992;9.228;2023-07-22T02:01:26;100037.97;;;14.00;100.00
21504;BME280;10913;51.992;9.228;2023-07-22T02:03:53;100032.69;;;14.00;100.00
21504;BME280;10913;51.992;9.228;2023-07-22T02:06:18;100030.94;;;13.99;100.00
21504;BME280;10913;51.992;9.228;2023-07-22T02:08:44;100029.09;;;14.01;100.00
21504;BME280;10913;51.992;9.228;2023-07-22T02:11:11;100030.78;;;14.05;100.00
21504;BME280;10913;51.992;9.228;2023-07-22T02:13:36;100025.41;;;14.08;100.00
21504;BME280;10913;51.992;9.228;2023-07-22T02:16:02;100035.94;;;14.11;100.00
21504;BME280;10913;51.992;9.228;2023-07-22T02:18:28;100037.69;;;14.12;100.00
21504;BME280;10913;51.992;9.228;2023-07-22T02:20:54;100040.41;;;14.11;100.00
21504;BME280;10913;51.992;9.228;2023-07-22T02:23:20;100042.13;;;14.12;100.00
21504;BME280;10913;51.992;9.228;2023-07-22T02:25:50;100041.34;;;14.08;100.00
21504;BME280;10913;51.992;9.228;2023-07-22T02:28:16;100046.75;;;14.04;100.00
21504;BME280;10913;51.992;9.228;2023-07-22T02:30:46;100046.88;;;13.99;100.00
21504;BME280;10913;51.992;9.228;2023-07-22T02:33:11;100050.53;;;13.95;100.00
21504;BME280;10913;51.992;9.228;2023-07-22T02:35:37;100046.16;;;13.93;100.00
21504;BME280;10913;51.992;9.228;2023-07-22T02:38:02;100043.53;;;13.91;100.00
21504;BME280;10913;51.992;9.228;2023-07-22T02:40:27;100037.34;;;13.91;100.00
21504;BME280;10913;51.992;9.228;2023-07-22T02:42:53;100053.22;;;13.94;100.00
21504;BME280;10913;51.992;9.228;2023-07-22T02:45:18;100043.50;;;13.93;100.00
21504;BME280;10913;51.992;9.228;2023-07-22T02:47:43;100041.72;;;13.93;100.00
21504;BME280;10913;51.992;9.228;2023-07-22T02:50:09;100046.13;;;13.94;100.00
21504;BME280;10913;51.992;9.228;2023-07-22T02:52:35;100053.16;;;13.97;100.00
21504;BME280;10913;51.992;9.228;2023-07-22T02:55:19;100050.47;;;13.98;100.00
21504;BME280;10913;51.992;9.228;2023-07-22T02:57:45;100046.00;;;13.99;100.00
21504;BME280;10913;51.992;9.228;2023-07-22T03:00:15;100041.47;;;14.02;100.00
21504;BME280;10913;51.992;9.228;2023-07-22T03:02:51;100055.59;;;14.04;100.00
21504;BME280;10913;51.992;9.228;2023-07-22T03:05:22;100057.38;;;14.04;100.00
21504;BME280;10913;51.992;9.228;2023-07-22T03:07:48;100053.94;;;14.00;100.00
21504;BME280;10913;51.992;9.228;2023-07-22T03:10:13;100057.56;;;13.98;100.00
21504;BME280;10913;51.992;9.228;2023-07-22T03:12:39;100054.09;;;13.94;100.00
21504;BME280;10913;51.992;9.228;2023-07-22T03:15:04;100053.19;;;13.95;100.00
21504;BME280;10913;51.992;9.228;2023-07-22T03:17:33;100058.38;;;14.00;100.00
21504;BME280;10913;51.992;9.228;2023-07-22T03:19:58;100055.66;;;14.01;100.00
21504;BME280;10913;51.992;9.228;2023-07-22T03:22:24;100056.50;;;14.03;100.00
21504;BME280;10913;51.992;9.228;2023-07-22T03:24:49;100062.72;;;14.02;100.00
21504;BME280;10913;51.992;9.228;2023-07-22T03:27:14;100066.22;;;14.04;100.00
21504;BME280;10913;51.992;9.228;2023-07-22T03:29:42;100071.50;;;14.06;100.00
21504;BME280;10913;51.992;9.228;2023-07-22T03:32:07;100070.59;;;14.07;100.00
21504;BME280;10913;51.992;9.228;2023-07-22T03:34:34;100075.00;;;14.08;100.00
21504;BME280;10913;51.992;9.228;2023-07-22T03:37:00;100076.72;;;14.10;100.00
21504;BME280;10913;51.992;9.228;2023-07-22T03:39:26;100075.84;;;14.10;100.00
21504;BME280;10913;51.992;9.228;2023-07-22T03:41:51;100078.47;;;14.11;100.00
21504;BME280;10913;51.992;9.228;2023-07-22T03:44:16;100074.91;;;14.12;100.00
21504;BME280;10913;51.992;9.228;2023-07-22T03:46:42;100082.81;;;14.14;100.00
21504;BME280;10913;51.992;9.228;2023-07-22T03:49:07;100072.19;;;14.14;100.00
21504;BME280;10913;51.992;9.228;2023-07-22T03:51:33;100081.94;;;14.13;100.00
21504;BME280;10913;51.992;9.228;2023-07-22T03:53:59;100080.16;;;14.14;100.00
21504;BME280;10913;51.992;9.228;2023-07-22T03:56:24;100081.03;;;14.14;100.00
21504;BME280;10913;51.992;9.228;2023-07-22T03:58:51;100086.34;;;14.14;100.00
21504;BME280;10913;51.992;9.228;2023-07-22T04:01:16;100087.19;;;14.17;100.00
21504;BME280;10913;51.992;9.228;2023-07-22T04:03:42;100090.69;;;14.19;100.00
21504;BME280;10913;51.992;9.228;2023-07-22T04:06:07;100079.09;;;14.21;100.00
21504;BME280;10913;51.992;9.228;2023-07-22T04:08:32;100073.69;;;14.24;100.00
21504;BME280;10913;51.992;9.228;2023-07-22T04:10:58;100078.06;;;14.27;100.00
21504;BME280;10913;51.992;9.228;2023-07-22T04:13:24;100083.31;;;14.30;100.00
21504;BME280;10913;51.992;9.228;2023-07-22T04:15:51;100082.31;;;14.34;100.00
21504;BME280;10913;51.992;9.228;2023-07-22T04:18:17;100082.25;;;14.37;100.00
21504;BME280;10913;51.992;9.228;2023-07-22T04:20:44;100084.81;;;14.40;100.00
21504;BME280;10913;51.992;9.228;2023-07-22T04:23:10;100087.47;;;14.41;100.00
21504;BME280;10913;51.992;9.228;2023-07-22T04:25:39;100084.75;;;14.43;100.00
21504;BME280;10913;51.992;9.228;2023-07-22T04:28:05;100085.59;;;14.45;100.00
21504;BME280;10913;51.992;9.228;2023-07-22T04:30:30;100087.38;;;14.44;100.00
21504;BME280;10913;51.992;9.228;2023-07-22T04:32:56;100089.16;;;14.44;100.00
21504;BME280;10913;51.992;9.228;2023-07-22T04:35:21;100089.13;;;14.45;100.00
21504;BME280;10913;51.992;9.228;2023-07-22T04:37:47;100085.59;;;14.45;100.00
21504;BME280;10913;51.992;9.228;2023-07-22T04:40:12;100090.00;;;14.46;100.00
21504;BME280;10913;51.992;9.228;2023-07-22T04:42:42;100092.63;;;14.47;100.00
21504;BME280;10913;51.992;9.228;2023-07-22T04:45:08;100084.63;;;14.49;100.00
21504;BME280;10913;51.992;9.228;2023-07-22T04:47:37;100092.50;;;14.52;100.00
21504;BME280;10913;51.992;9.228;2023-07-22T04:50:07;100094.19;;;14.56;100.00
21504;BME280;10913;51.992;9.228;2023-07-22T04:52:35;100100.34;;;14.58;100.00
21504;BME280;10913;51.992;9.228;2023-07-22T04:55:00;100102.88;;;14.61;100.00
21504;BME280;10913;51.992;9.228;2023-07-22T04:57:25;100101.97;;;14.62;100.00
21504;BME280;10913;51.992;9.228;2023-07-22T04:59:51;100103.72;;;14.63;100.00
21504;BME280;10913;51.992;9.228;2023-07-22T05:02:16;100094.84;;;14.64;100.00
21504;BME280;10913;51.992;9.228;2023-07-22T05:04:41;100092.19;;;14.64;100.00
21504;BME280;10913;51.992;9.228;2023-07-22T05:07:07;100084.19;;;14.64;100.00
21504;BME280;10913;51.992;9.228;2023-07-22T05:09:32;100102.84;;;14.63;100.00
21504;BME280;10913;51.992;9.228;2023-07-22T05:11:58;100102.84;;;14.63;100.00
21504;BME280;10913;51.992;9.228;2023-07-22T05:14:23;100097.50;;;14.64;100.00
21504;BME280;10913;51.992;9.228;2023-07-22T05:16:49;100100.94;;;14.68;100.00
21504;BME280;10913;51.992;9.228;2023-07-22T05:19:14;100100.00;;;14.70;100.00
21504;BME280;10913;51.992;9.228;2023-07-22T05:21:39;100109.72;;;14.71;100.00
21504;BME280;10913;51.992;9.228;2023-07-22T05:24:06;100105.25;;;14.73;100.00
21504;BME280;10913;51.992;9.228;2023-07-22T05:26:32;100109.63;;;14.76;100.00
21504;BME280;10913;51.992;9.228;2023-07-22T05:28:57;100121.97;;;14.78;100.00
21504;BME280;10913;51.992;9.228;2023-07-22T05:31:22;100113.91;;;14.80;100.00
21504;BME280;10913;51.992;9.228;2023-07-22T05:33:48;100113.81;;;14.83;100.00
21504;BME280;10913;51.992;9.228;2023-07-22T05:36:13;100112.09;;;14.82;100.00
21504;BME280;10913;51.992;9.228;2023-07-22T05:38:38;100118.44;;;14.78;100.00
21504;BME280;10913;51.992;9.228;2023-07-22T05:41:04;100124.63;;;14.78;100.00
21504;BME280;10913;51.992;9.228;2023-07-22T05:43:29;100125.41;;;14.80;100.00
21504;BME280;10913;51.992;9.228;2023-07-22T05:45:55;100126.28;;;14.81;100.00
21504;BME280;10913;51.992;9.228;2023-07-22T05:48:20;100125.34;;;14.83;100.00
21504;BME280;10913;51.992;9.228;2023-07-22T05:50:46;100120.84;;;14.86;100.00
21504;BME280;10913;51.992;9.228;2023-07-22T05:53:13;100115.56;;;14.84;100.00
21504;BME280;10913;51.992;9.228;2023-07-22T05:55:38;100127.13;;;14.83;100.00
21504;BME280;10913;51.992;9.228;2023-07-22T05:58:03;100126.25;;;14.82;100.00
21504;BME280;10913;51.992;9.228;2023-07-22T06:00:33;100119.19;;;14.81;100.00
21504;BME280;10913;51.992;9.228;2023-07-22T06:02:59;100123.63;;;14.81;100.00
21504;BME280;10913;51.992;9.228;2023-07-22T06:05:24;100128.88;;;14.84;100.00
21504;BME280;10913;51.992;9.228;2023-07-22T06:07:49;100130.53;;;14.88;100.00
21504;BME280;10913;51.992;9.228;2023-07-22T06:10:15;100127.78;;;14.93;100.00
21504;BME280;10913;51.992;9.228;2023-07-22T06:12:40;100132.91;;;14.99;100.00
21504;BME280;10913;51.992;9.228;2023-07-22T06:15:07;100137.97;;;15.08;100.00
21504;BME280;10913;51.992;9.228;2023-07-22T06:17:33;100134.16;;;15.18;100.00
21504;BME280;10913;51.992;9.228;2023-07-22T06:19:58;100132.06;;;15.29;100.00
21504;BME280;10913;51.992;9.228;2023-07-22T06:22:23;100133.44;;;15.42;100.00
21504;BME280;10913;51.992;9.228;2023-07-22T06:24:49;100127.78;;;15.55;100.00
21504;BME280;10913;51.992;9.228;2023-07-22T06:27:14;100128.13;;;15.73;100.00
21504;BME280;10913;51.992;9.228;2023-07-22T06:29:39;100133.66;;;15.95;100.00
21504;BME280;10913;51.992;9.228;2023-07-22T06:32:05;100126.97;;;16.10;100.00
21504;BME280;10913;51.992;9.228;2023-07-22T06:34:31;100118.94;;;16.11;100.00
21504;BME280;10913;51.992;9.228;2023-07-22T06:36:56;100120.72;;;16.11;100.00
21504;BME280;10913;51.992;9.228;2023-07-22T06:39:21;100131.41;;;16.09;100.00
21504;BME280;10913;51.992;9.228;2023-07-22T06:41:46;100128.81;;;16.08;99.91
21504;BME280;10913;51.992;9.228;2023-07-22T06:44:12;100123.44;;;16.09;99.54
21504;BME280;10913;51.992;9.228;2023-07-22T06:46:37;100125.03;;;16.15;99.50
21504;BME280;10913;51.992;9.228;2023-07-22T06:49:03;100130.91;;;16.25;99.73
21504;BME280;10913;51.992;9.228;2023-07-22T06:51:28;100128.00;;;16.32;98.50
21504;BME280;10913;51.992;9.228;2023-07-22T06:53:53;100130.50;;;16.38;99.13
21504;BME280;10913;51.992;9.228;2023-07-22T06:56:19;100127.59;;;16.44;97.97
21504;BME280;10913;51.992;9.228;2023-07-22T06:58:44;100122.94;;;16.51;98.71
21504;BME280;10913;51.992;9.228;2023-07-22T07:01:10;100124.25;;;16.66;99.68
21504;BME280;10913;51.992;9.228;2023-07-22T07:03:35;100126.59;;;16.75;99.67
21504;BME280;10913;51.992;9.228;2023-07-22T07:06:00;100122.03;;;16.78;99.54
21504;BME280;10913;51.992;9.228;2023-07-22T07:08:26;100117.22;;;16.63;96.92
21504;BME280;10913;51.992;9.228;2023-07-22T07:10:52;100117.94;;;16.68;97.91
21504;BME280;10913;51.992;9.228;2023-07-22T07:13:17;100115.13;;;16.73;97.72
21504;BME280;10913;51.992;9.228;2023-07-22T07:15:46;100115.97;;;16.73;96.85
21504;BME280;10913;51.992;9.228;2023-07-22T07:18:13;100127.47;;;16.75;96.98
21504;BME280;10913;51.992;9.228;2023-07-22T07:20:38;100118.09;;;16.88;96.19
21504;BME280;10913;51.992;9.228;2023-07-22T07:23:04;100118.97;;;17.14;94.56
21504;BME280;10913;51.992;9.228;2023-07-22T07:25:29;100109.00;;;17.42;93.48
21504;BME280;10913;51.992;9.228;2023-07-22T07:27:54;100115.44;;;17.60;91.70
21504;BME280;10913;51.992;9.228;2023-07-22T07:30:20;100118.44;;;17.76;91.19
21504;BME280;10913;51.992;9.228;2023-07-22T07:32:45;100117.06;;;17.87;90.30
21504;BME280;10913;51.992;9.228;2023-07-22T07:35:10;100125.19;;;18.08;90.04
21504;BME280;10913;51.992;9.228;2023-07-22T07:37:36;100121.69;;;18.28;90.14
21504;BME280;10913;51.992;9.228;2023-07-22T07:40:02;100120.72;;;18.50;88.93
21504;BME280;10913;51.992;9.228;2023-07-22T07:42:28;100131.00;;;18.61;88.31
21504;BME280;10913;51.992;9.228;2023-07-22T07:44:54;100124.59;;;18.65;87.60
21504;BME280;10913;51.992;9.228;2023-07-22T07:47:19;100133.88;;;18.78;86.98
21504;BME280;10913;51.992;9.228;2023-07-22T07:49:45;100130.84;;;18.86;86.94
21504;BME280;10913;51.992;9.228;2023-07-22T07:52:10;100126.53;;;18.62;84.96
21504;BME280;10913;51.992;9.228;2023-07-22T07:54:36;100127.78;;;18.53;86.88
21504;BME280;10913;51.992;9.228;2023-07-22T07:57:01;100130.81;;;18.44;86.43
21504;BME280;10913;51.992;9.228;2023-07-22T07:59:26;100137.97;;;18.43;87.15
21504;BME280;10913;51.992;9.228;2023-07-22T08:01:52;100141.41;;;18.47;87.48
21504;BME280;10913;51.992;9.228;2023-07-22T08:04:18;100141.34;;;18.48;86.59
21504;BME280;10913;51.992;9.228;2023-07-22T08:06:43;100143.31;;;18.65;85.95
21504;BME280;10913;51.992;9.228;2023-07-22T08:09:10;100145.91;;;18.88;83.82
21504;BME280;10913;51.992;9.228;2023-07-22T08:11:36;100144.84;;;19.13;83.82
21504;BME280;10913;51.992;9.228;2023-07-22T08:14:02;100143.25;;;19.27;84.69
21504;BME280;10913;51.992;9.228;2023-07-22T08:16:27;100146.25;;;19.40;83.70
21504;BME280;10913;51.992;9.228;2023-07-22T08:18:53;100144.94;;;19.50;82.64
21504;BME280;10913;51.992;9.228;2023-07-22T08:21:18;100157.44;;;19.70;81.88
21504;BME280;10913;51.992;9.228;2023-07-22T08:23:45;100140.91;;;19.79;82.38
21504;BME280;10913;51.992;9.228;2023-07-22T08:26:12;100137.56;;;19.93;82.86
21504;BME280;10913;51.992;9.228;2023-07-22T08:28:37;100143.50;;;20.00;82.47
21504;BME280;10913;51.992;9.228;2023-07-22T08:31:02;100136.63;;;19.94;82.65
21504;BME280;10913;51.992;9.228;2023-07-22T08:33:28;100151.94;;;19.92;81.07
21504;BME280;10913;51.992;9.228;2023-07-22T08:35:54;100145.25;;;19.82;81.69
21504;BME280;10913;51.992;9.228;2023-07-22T08:38:19;100146.84;;;19.86;82.34
21504;BME280;10913;51.992;9.228;2023-07-22T08:40:48;100143.69;;;19.78;81.73
21504;BME280;10913;51.992;9.228;2023-07-22T08:43:15;100145.31;;;19.99;81.77
21504;BME280;10913;51.992;9.228;2023-07-22T08:45:43;100141.75;;;19.80;80.48
21504;BME280;10913;51.992;9.228;2023-07-22T08:48:09;100150.13;;;19.74;81.33
21504;BME280;10913;51.992;9.228;2023-07-22T08:51:04;100147.28;;;19.77;81.60
21504;BME280;10913;51.992;9.228;2023-07-22T08:53:32;100144.22;;;19.66;81.25
21504;BME280;10913;51.992;9.228;2023-07-22T08:56:02;100143.44;;;19.82;82.62
21504;BME280;10913;51.992;9.228;2023-07-22T08:58:29;100141.91;;;20.14;81.85
21504;BME280;10913;51.992;9.228;2023-07-22T09:00:55;100143.19;;;20.43;80.53
21504;BME280;10913;51.992;9.228;2023-07-22T09:03:21;100134.22;;;20.79;81.01
21504;BME280;10913;51.992;9.228;2023-07-22T09:05:47;100135.72;;;21.02;78.47
21504;BME280;10913;51.992;9.228;2023-07-22T09:08:13;100126.56;;;21.23;77.70
21504;BME280;10913;51.992;9.228;2023-07-22T09:10:38;100142.28;;;21.13;77.55
21504;BME280;10913;51.992;9.228;2023-07-22T09:13:04;100134.78;;;21.20;77.57
21504;BME280;10913;51.992;9.228;2023-07-22T09:15:35;100126.38;;;21.09;77.17
21504;BME280;10913;51.992;9.228;2023-07-22T09:18:01;100131.59;;;21.12;78.42
21504;BME280;10913;51.992;9.228;2023-07-22T09:20:26;100129.47;;;21.01;77.25
21504;BME280;10913;51.992;9.228;2023-07-22T09:22:53;100129.41;;;20.68;77.41
21504;BME280;10913;51.992;9.228;2023-07-22T09:25:20;100131.44;;;20.46;78.74
21504;BME280;10913;51.992;9.228;2023-07-22T09:27:47;100129.09;;;20.57;80.67
21504;BME280;10913;51.992;9.228;2023-07-22T09:32:47;100142.16;;;20.46;79.13
21504;BME280;10913;51.992;9.228;2023-07-22T09:35:13;100131.06;;;20.35;79.10
21504;BME280;10913;51.992;9.228;2023-07-22T09:37:39;100127.16;;;20.42;79.84
21504;BME280;10913;51.992;9.228;2023-07-22T09:40:27;100133.97;;;20.66;81.45
21504;BME280;10913;51.992;9.228;2023-07-22T09:42:55;100117.06;;;20.98;79.23
21504;BME280;10913;51.992;9.228;2023-07-22T09:45:25;100121.03;;;21.09;77.85
21504;BME280;10913;51.992;9.228;2023-07-22T09:47:52;100119.13;;;21.28;77.63
21504;BME280;10913;51.992;9.228;2023-07-22T09:50:22;100122.34;;;21.35;77.46
21504;BME280;10913;51.992;9.228;2023-07-22T09:52:52;100116.97;;;21.35;77.00
21504;BME280;10913;51.992;9.228;2023-07-22T09:55:22;100115.91;;;21.54;77.58
21504;BME280;10913;51.992;9.228;2023-07-22T09:57:56;100113.53;;;21.48;75.98
21504;BME280;10913;51.992;9.228;2023-07-22T10:00:24;100121.75;;;21.45;75.06
21504;BME280;10913;51.992;9.228;2023-07-22T10:02:51;100120.31;;;21.22;75.72
21504;BME280;10913;51.992;9.228;2023-07-22T10:05:18;100116.75;;;21.22;74.99
21504;BME280;10913;51.992;9.228;2023-07-22T10:07:50;100109.00;;;21.16;74.23
21504;BME280;10913;51.992;9.228;2023-07-22T10:10:18;100111.38;;;21.22;76.21
21504;BME280;10913;51.992;9.228;2023-07-22T10:12:44;100114.72;;;21.43;75.26
21504;BME280;10913;51.992;9.228;2023-07-22T10:15:11;100116.69;;;21.56;75.16
21504;BME280;10913;51.992;9.228;2023-07-22T10:17:37;100123.88;;;21.56;75.20
21504;BME280;10913;51.992;9.228;2023-07-22T10:20:04;100118.75;;;21.51;75.21
21504;BME280;10913;51.992;9.228;2023-07-22T10:22:36;100112.19;;;21.57;75.15
21504;BME280;10913;51.992;9.228;2023-07-22T10:25:06;100105.78;;;21.75;75.02
21504;BME280;10913;51.992;9.228;2023-07-22T10:27:34;100102.13;;;21.92;74.14
21504;BME280;10913;51.992;9.228;2023-07-22T10:29:59;100100.69;;;22.02;70.97
21504;BME280;10913;51.992;9.228;2023-07-22T10:32:32;100099.28;;;21.95;70.21
21504;BME280;10913;51.992;9.228;2023-07-22T10:34:57;100087.63;;;21.79;69.48
21504;BME280;10913;51.992;9.228;2023-07-22T10:37:32;100095.59;;;21.80;71.16
21504;BME280;10913;51.992;9.228;2023-07-22T10:40:19;100088.44;;;21.96;70.58
21504;BME280;10913;51.992;9.228;2023-07-22T10:43:11;100089.03;;;22.02;70.00
21504;BME280;10913;51.992;9.228;2023-07-22T10:45:41;100089.63;;;22.22;69.84
21504;BME280;10913;51.992;9.228;2023-07-22T10:48:12;100078.22;;;22.49;69.72
21504;BME280;10913;51.992;9.228;2023-07-22T10:50:48;100071.19;;;22.76;70.21
21504;BME280;10913;51.992;9.228;2023-07-22T11:04:11;100061.44;;;23.03;66.55
21504;BME280;10913;51.992;9.228;2023-07-22T11:14:35;100049.50;;;22.63;68.16
21504;BME280;10913;51.992;9.228;2023-07-22T11:17:03;100042.97;;;22.67;67.67
21504;BME280;10913;51.992;9.228;2023-07-22T11:19:29;100036.94;;;22.78;67.52
21504;BME280;10913;51.992;9.228;2023-07-22T11:21:55;100031.00;;;22.87;67.45
21504;BME280;10913;51.992;9.228;2023-07-22T11:24:22;100030.47;;;22.96;66.78
21504;BME280;10913;51.992;9.228;2023-07-22T11:26:48;100035.94;;;23.09;66.68
21504;BME280;10913;51.992;9.228;2023-07-22T11:29:15;100028.88;;;23.21;66.53
21504;BME280;10913;51.992;9.228;2023-07-22T11:31:46;100032.44;;;23.21;67.01
21504;BME280;10913;51.992;9.228;2023-07-22T11:34:13;100024.47;;;23.20;66.76
21504;BME280;10913;51.992;9.228;2023-07-22T11:36:40;100023.81;;;23.16;65.26
21504;BME280;10913;51.992;9.228;2023-07-22T11:41:32;100022.56;;;23.08;65.89
21504;BME280;10913;51.992;9.228;2023-07-22T11:44:02;100009.47;;;22.87;65.01
21504;BME280;10913;51.992;9.228;2023-07-22T11:46:29;100015.94;;;22.55;65.04
21504;BME280;10913;51.992;9.228;2023-07-22T11:48:55;100014.13;;;22.40;66.42
21504;BME280;10913;51.992;9.228;2023-07-22T11:51:22;100018.38;;;22.44;67.59
21504;BME280;10913;51.992;9.228;2023-07-22T11:53:49;100019.00;;;22.63;67.35
21504;BME280;10913;51.992;9.228;2023-07-22T11:56:28;100019.28;;;22.88;66.42
21504;BME280;10913;51.992;9.228;2023-07-22T11:58:56;100016.66;;;23.01;66.20
21504;BME280;10913;51.992;9.228;2023-07-22T12:01:22;100017.94;;;23.10;65.36
21504;BME280;10913;51.992;9.228;2023-07-22T12:03:49;100004.19;;;23.14;65.40
21504;BME280;10913;51.992;9.228;2023-07-22T12:06:15;100007.16;;;22.95;64.12
21504;BME280;10913;51.992;9.228;2023-07-22T12:08:48;100005.63;;;22.77;65.30
21504;BME280;10913;51.992;9.228;2023-07-22T12:13:43;100004.41;;;22.67;66.55
21504;BME280;10913;51.992;9.228;2023-07-22T12:16:11;99998.22;;;22.65;66.38
21504;BME280;10913;51.992;9.228;2023-07-22T12:18:44;99991.34;;;22.75;67.29
21504;BME280;10913;51.992;9.228;2023-07-22T12:21:10;100004.25;;;22.84;66.74
21504;BME280;10913;51.992;9.228;2023-07-22T12:23:37;100007.31;;;22.78;65.96
21504;BME280;10913;51.992;9.228;2023-07-22T12:26:03;100010.72;;;22.96;66.81
21504;BME280;10913;51.992;9.228;2023-07-22T12:28:29;100002.63;;;23.10;66.51
21504;BME280;10913;51.992;9.228;2023-07-22T12:30:54;100003.22;;;23.15;65.21
21504;BME280;10913;51.992;9.228;2023-07-22T12:33:22;100002.91;;;23.06;63.74
21504;BME280;10913;51.992;9.228;2023-07-22T12:35:48;99994.72;;;23.07;63.38
21504;BME280;10913;51.992;9.228;2023-07-22T12:38:13;100003.13;;;23.17;64.71
21504;BME280;10913;51.992;9.228;2023-07-22T12:40:38;100001.84;;;23.22;65.05
21504;BME280;10913;51.992;9.228;2023-07-22T12:43:04;99999.47;;;23.18;63.83
21504;BME280;10913;51.992;9.228;2023-07-22T12:45:30;99990.97;;;23.10;63.98
21504;BME280;10913;51.992;9.228;2023-07-22T12:47:55;99993.88;;;23.07;64.74
21504;BME280;10913;51.992;9.228;2023-07-22T12:50:20;99988.69;;;22.89;63.60
21504;BME280;10913;51.992;9.228;2023-07-22T12:52:46;99984.44;;;22.85;64.66
21504;BME280;10913;51.992;9.228;2023-07-22T12:55:11;99984.06;;;22.77;66.26
21504;BME280;10913;51.992;9.228;2023-07-22T12:57:36;99983.44;;;22.72;65.96
21504;BME280;10913;51.992;9.228;2023-07-22T13:00:02;99982.66;;;22.70;65.84
21504;BME280;10913;51.992;9.228;2023-07-22T13:02:31;99984.22;;;22.74;67.25
21504;BME280;10913;51.992;9.228;2023-07-22T13:04:56;99982.00;;;22.81;65.69
21504;BME280;10913;51.992;9.228;2023-07-22T13:07:22;99976.47;;;22.98;65.66
21504;BME280;10913;51.992;9.228;2023-07-22T13:09:47;99977.91;;;23.18;65.09